Time;durP1;ratioP1;P1;durP2;ratioP2;P2;SDS_P1;SDS_P2;PMS_P1;PMS_P2;Temp;Humidity;BMP_temperature;BMP_pressure;BME280_temperature;BME280_humidity;BME280_pressure;Samples;Min_cycle;Max_cycle;Signal;HPM_P1;HPM_P2
2024/01/12 00:00:57;;;;;;;13.75;7.30;;;13.00;36.20;;;;;;6009470;22;45388;-50
2024/01/12 00:03:24;;;;;;;13.35;7.50;;;13.00;36.20;;;;;;6040917;22;45407;-50
2024/01/12 00:06:11;;;;;;;12.13;7.43;;;13.00;36.10;;;;;;6020407;22;45184;-50
2024/01/12 00:08:57;;;;;;;11.63;7.22;;;13.00;36.40;;;;;;6007088;22;46267;-50
2024/01/12 00:11:32;;;;;;;12.45;7.82;;;13.10;36.40;;;;;;6016671;22;45314;-50
2024/01/12 00:13:58;;;;;;;13.85;7.65;;;13.00;36.20;;;;;;6007857;22;45276;-50
2024/01/12 00:16:48;;;;;;;11.60;6.88;;;13.00;36.20;;;;;;6024905;22;45375;-50
2024/01/12 00:19:30;;;;;;;13.25;6.80;;;13.00;36.50;;;;;;6009663;22;47901;-50
2024/01/12 00:21:56;;;;;;;11.82;7.15;;;13.00;36.60;;;;;;6000474;22;45227;-50
2024/01/12 00:24:43;;;;;;;13.05;7.05;;;13.00;36.50;;;;;;6020131;22;45346;-50
2024/01/12 00:27:40;;;;;;;10.57;6.63;;;13.10;36.60;;;;;;6046010;22;45308;-50
2024/01/12 00:30:22;;;;;;;11.60;6.68;;;13.10;36.60;;;;;;6016841;22;47021;-49
2024/01/12 00:33:14;;;;;;;11.43;7.10;;;13.10;36.80;;;;;;6023841;22;45087;-50
2024/01/12 00:35:47;;;;;;;11.52;7.05;;;13.10;36.80;;;;;;6032722;22;45398;-50
2024/01/12 00:38:15;;;;;;;11.93;7.05;;;13.10;36.90;;;;;;6006575;22;45474;-50
2024/01/12 00:41:17;;;;;;;11.05;6.63;;;13.10;36.60;;;;;;6018619;22;47287;-50
2024/01/12 00:43:45;;;;;;;13.88;7.47;;;13.10;37.10;;;;;;6016131;22;45459;-50
2024/01/12 00:47:07;;;;;;;12.48;7.53;;;13.10;36.70;;;;;;6033996;22;45345;-50
2024/01/12 00:49:34;;;;;;;12.10;7.70;;;13.10;36.90;;;;;;5995460;22;45544;-50
2024/01/12 00:52:11;;;;;;;14.95;7.20;;;13.10;36.70;;;;;;6017656;22;45724;-50
2024/01/12 00:54:40;;;;;;;11.98;7.07;;;13.10;37.10;;;;;;6028552;22;45395;-50
2024/01/12 00:57:25;;;;;;;11.80;7.03;;;13.00;36.90;;;;;;6023026;22;45294;-50
2024/01/12 01:00:22;;;;;;;15.68;7.43;;;13.10;37.00;;;;;;6008003;22;45457;-50
2024/01/12 01:02:51;;;;;;;11.27;7.30;;;13.00;37.00;;;;;;6021658;22;46368;-50
2024/01/12 01:05:18;;;;;;;14.45;7.13;;;13.10;37.00;;;;;;6015283;22;45319;-50
2024/01/12 01:07:44;;;;;;;12.68;7.55;;;13.00;36.90;;;;;;6018720;22;45976;-50
2024/01/12 01:10:41;;;;;;;13.60;6.85;;;13.00;37.00;;;;;;6000722;22;45586;-50
2024/01/12 01:13:11;;;;;;;11.13;7.60;;;13.10;37.30;;;;;;6003057;22;46954;-50
2024/01/12 01:15:47;;;;;;;12.60;7.75;;;13.10;36.90;;;;;;6018917;22;45286;-50
2024/01/12 01:18:15;;;;;;;12.00;7.35;;;13.10;37.40;;;;;;6031131;22;45035;-50
2024/01/12 01:21:11;;;;;;;13.30;6.93;;;13.10;37.10;;;;;;6027920;22;45183;-50
2024/01/12 01:23:39;;;;;;;12.68;7.78;;;13.10;37.40;;;;;;6031784;22;46071;-50
2024/01/12 01:26:05;;;;;;;14.15;7.32;;;13.10;37.30;;;;;;6000340;22;45343;-50
2024/01/12 01:28:52;;;;;;;12.07;7.47;;;13.10;37.30;;;;;;6023547;22;45411;-50
2024/01/12 01:31:25;;;;;;;11.90;7.43;;;13.10;37.70;;;;;;6010287;22;45698;-50
2024/01/12 01:34:06;;;;;;;14.65;8.60;;;13.10;37.30;;;;;;6034110;22;45427;-50
2024/01/12 01:36:57;;;;;;;13.52;7.63;;;13.00;36.90;;;;;;6005958;22;45380;-50
2024/01/12 01:39:54;;;;;;;14.63;8.35;;;13.00;36.20;;;;;;6004484;22;45344;-50
2024/01/12 01:42:42;;;;;;;14.25;8.85;;;12.90;36.00;;;;;;6034813;22;45245;-50
2024/01/12 01:45:11;;;;;;;16.23;9.20;;;12.90;35.90;;;;;;5985939;22;46354;-50
2024/01/12 01:48:04;;;;;;;13.75;8.50;;;12.90;36.00;;;;;;6019481;22;45437;-50
2024/01/12 01:50:53;;;;;;;14.90;8.52;;;12.90;36.00;;;;;;6003827;22;45516;-50
2024/01/12 01:53:44;;;;;;;14.30;8.63;;;12.80;35.70;;;;;;6021850;22;45306;-50
2024/01/12 01:56:36;;;;;;;15.65;8.20;;;12.80;35.70;;;;;;5991606;22;46240;-50
2024/01/12 01:59:04;;;;;;;16.30;9.23;;;12.80;35.70;;;;;;6021000;22;45270;-50
2024/01/12 02:02:03;;;;;;;16.05;8.85;;;12.80;35.80;;;;;;6012232;22;45348;-50
2024/01/12 02:04:47;;;;;;;15.27;9.40;;;12.80;35.80;;;;;;6003829;22;45487;-50
2024/01/12 02:07:41;;;;;;;16.33;8.88;;;12.90;35.90;;;;;;6018897;22;45888;-49
2024/01/12 02:10:09;;;;;;;15.52;9.35;;;12.80;35.70;;;;;;6010068;22;45592;-50
2024/01/12 02:12:42;;;;;;;14.52;9.00;;;12.80;35.60;;;;;;6000487;22;45333;-50
2024/01/12 02:15:34;;;;;;;16.20;9.00;;;12.80;35.50;;;;;;6018119;22;45408;-50
2024/01/12 02:18:17;;;;;;;16.38;9.40;;;12.80;35.40;;;;;;6020355;22;45758;-50
2024/01/12 02:24:18;;;;;;;15.70;10.30;;;12.80;35.40;;;;;;5977132;22;45402;-50
2024/01/12 02:27:00;;;;;;;15.90;9.20;;;12.70;35.50;;;;;;6040452;22;45355;-50
2024/01/12 02:29:27;;;;;;;15.25;9.18;;;12.80;35.50;;;;;;5996422;22;46400;-50
2024/01/12 02:32:10;;;;;;;17.33;9.80;;;12.70;35.50;;;;;;6023358;22;46217;-50
2024/01/12 02:34:52;;;;;;;14.70;9.60;;;12.70;35.60;;;;;;6035843;22;45185;-50
2024/01/12 02:37:19;;;;;;;14.88;9.30;;;12.70;35.50;;;;;;6017079;22;45440;-50
2024/01/12 02:39:57;;;;;;;14.27;8.48;;;12.70;35.50;;;;;;6015848;22;47016;-50
2024/01/12 02:42:34;;;;;;;17.83;10.23;;;12.70;35.80;;;;;;6014254;22;45592;-50
2024/01/12 02:45:22;;;;;;;16.77;9.27;;;12.70;35.80;;;;;;6018386;22;45280;-50
2024/01/12 02:48:15;;;;;;;18.80;10.60;;;12.70;35.80;;;;;;6052350;22;45408;-50
2024/01/12 02:50:53;;;;;;;22.10;10.50;;;12.70;35.70;;;;;;6013721;22;45447;-50
2024/01/12 02:53:44;;;;;;;16.77;10.70;;;12.70;35.70;;;;;;6009247;22;45153;-50
2024/01/12 02:59:52;;;;;;;16.98;10.20;;;12.70;35.90;;;;;;5943614;22;45424;-50
2024/01/12 03:08:22;;;;;;;16.38;10.15;;;12.70;35.60;;;;;;6005213;22;45301;-50
2024/01/12 03:11:33;;;;;;;17.60;9.88;;;12.80;40.30;;;;;;6021662;22;45398;-50
2024/01/12 03:14:02;;;;;;;20.13;10.50;;;12.80;40.00;;;;;;6012047;22;45729;-50
2024/01/12 03:16:28;;;;;;;19.25;10.90;;;12.80;37.90;;;;;;6012107;22;46611;-50
2024/01/12 03:18:57;;;;;;;20.13;11.23;;;12.80;37.60;;;;;;5993859;22;45674;-50
2024/01/12 03:21:34;;;;;;;17.95;10.65;;;12.70;37.20;;;;;;6035831;22;45359;-50
2024/01/12 03:24:00;;;;;;;20.70;11.18;;;12.80;37.00;;;;;;6012990;22;46178;-50
2024/01/12 03:26:28;;;;;;;17.98;10.55;;;12.80;36.90;;;;;;6027093;22;45419;-51
2024/01/12 03:28:56;;;;;;;19.27;10.20;;;12.80;36.70;;;;;;6024341;22;45378;-50
2024/01/12 03:31:23;;;;;;;17.52;10.52;;;12.70;36.50;;;;;;5999145;22;45262;-50
2024/01/12 03:34:11;;;;;;;16.88;10.07;;;12.70;36.30;;;;;;6011063;22;46955;-50
2024/01/12 03:36:38;;;;;;;17.83;10.77;;;12.70;36.20;;;;;;6028080;22;45400;-50
2024/01/12 03:39:15;;;;;;;19.30;11.02;;;12.70;37.40;;;;;;6039447;22;45611;-50
2024/01/12 03:42:11;;;;;;;16.50;9.88;;;12.70;36.00;;;;;;6026739;22;45061;-50
2024/01/12 03:44:39;;;;;;;20.20;11.50;;;12.70;36.00;;;;;;6016016;22;45461;-50
2024/01/12 03:47:05;;;;;;;20.02;10.88;;;12.70;36.00;;;;;;6006848;22;45423;-50
2024/01/12 03:49:44;;;;;;;20.98;10.75;;;12.70;35.90;;;;;;6007056;22;45439;-50
2024/01/12 03:52:21;;;;;;;18.65;10.68;;;12.70;35.90;;;;;;6053746;22;45505;-50
2024/01/12 03:55:03;;;;;;;22.25;11.57;;;12.70;36.00;;;;;;6011991;22;46324;-50
2024/01/12 03:57:47;;;;;;;19.85;11.05;;;12.70;35.90;;;;;;6018967;22;45180;-50
2024/01/12 04:00:29;;;;;;;19.27;10.95;;;12.70;35.80;;;;;;6014304;22;45806;-50
2024/01/12 04:06:32;;;;;;;19.15;10.75;;;12.70;35.70;;;;;;5965648;22;45544;-50
2024/01/12 04:08:58;;;;;;;22.38;12.02;;;12.70;35.80;;;;;;6021697;22;45263;-51
2024/01/12 04:11:27;;;;;;;19.70;11.10;;;12.70;35.80;;;;;;6024051;22;45397;-50
2024/01/12 04:17:33;;;;;;;20.30;11.40;;;12.70;35.80;;;;;;6013349;22;45188;-50
2024/01/12 04:20:32;;;;;;;20.67;11.85;;;12.70;35.90;;;;;;6009321;22;45317;-50
2024/01/12 04:22:59;;;;;;;21.58;11.15;;;12.70;35.80;;;;;;6040971;22;45302;-50
2024/01/12 04:25:42;;;;;;;20.35;11.10;;;12.70;35.90;;;;;;6023275;22;45149;-50
2024/01/12 04:28:30;;;;;;;19.20;10.95;;;12.70;35.90;;;;;;6018658;22;45425;-50
2024/01/12 04:30:59;;;;;;;24.20;12.23;;;12.70;35.80;;;;;;6021298;22;45121;-50
2024/01/12 04:33:55;;;;;;;25.58;13.55;;;12.70;35.80;;;;;;6036413;22;45335;-51
2024/01/12 04:36:23;;;;;;;22.65;12.48;;;12.70;35.90;;;;;;6021324;22;45328;-50
2024/01/12 04:38:50;;;;;;;25.30;12.63;;;12.70;35.80;;;;;;6026398;22;46183;-50
2024/01/12 04:41:17;;;;;;;22.17;12.40;;;12.70;35.70;;;;;;6005456;22;45346;-50
2024/01/12 04:43:44;;;;;;;24.40;12.35;;;12.70;35.90;;;;;;6022671;22;46048;-50
2024/01/12 04:46:49;;;;;;;24.95;12.15;;;12.70;35.80;;;;;;6035135;22;45407;-50
2024/01/12 04:52:47;;;;;;;25.60;12.38;;;12.70;35.90;;;;;;5988254;22;45388;-50
2024/01/12 04:55:13;;;;;;;27.45;12.43;;;12.70;35.90;;;;;;6029018;22;45307;-50
2024/01/12 04:57:56;;;;;;;25.02;13.23;;;12.70;35.50;;;;;;6012175;22;45455;-51
2024/01/12 05:00:40;;;;;;;22.88;12.40;;;12.70;35.90;;;;;;6018537;22;46736;-50
2024/01/12 05:06:31;;;;;;;21.98;11.63;;;12.70;35.70;;;;;;5939818;22;45431;-50
2024/01/12 05:09:18;;;;;;;23.83;12.13;;;12.70;35.70;;;;;;6032221;22;45105;-50
2024/01/12 05:11:56;;;;;;;22.02;11.82;;;12.60;35.80;;;;;;6008947;22;45315;-51
2024/01/12 05:15:08;;;;;;;20.30;10.80;;;12.70;36.00;;;;;;6005376;22;45132;-50
2024/01/12 05:17:50;;;;;;;23.25;11.65;;;12.80;42.70;;;;;;6032155;22;45427;-50
2024/01/12 05:20:39;;;;;;;21.98;11.32;;;12.80;39.20;;;;;;6020203;22;45289;-50
2024/01/12 05:23:37;;;;;;;23.75;11.88;;;12.70;38.40;;;;;;6030285;22;46380;-50
2024/01/12 05:26:07;;;;;;;25.83;12.13;;;12.70;38.00;;;;;;6020928;22;45288;-50
2024/01/12 05:28:45;;;;;;;22.90;12.10;;;12.70;37.70;;;;;;6016361;22;45390;-50
2024/01/12 05:31:32;;;;;;;24.85;12.65;;;12.70;37.60;;;;;;6034915;22;45344;-50
2024/01/12 05:34:27;;;;;;;26.15;13.10;;;12.60;37.40;;;;;;6037752;22;46242;-50
2024/01/12 05:37:08;;;;;;;26.20;12.38;;;12.70;37.30;;;;;;6001630;22;45440;-50
2024/01/12 05:40:25;;;;;;;29.75;13.18;;;12.70;37.30;;;;;;6043643;22;45284;-50
2024/01/12 05:43:24;;;;;;;28.95;12.80;;;12.70;37.00;;;;;;6015623;22;45202;-50
2024/01/12 05:46:20;;;;;;;25.08;11.90;;;12.70;37.00;;;;;;6015238;22;47181;-50
2024/01/12 05:48:49;;;;;;;25.27;12.25;;;12.70;36.80;;;;;;6012377;22;45513;-50
2024/01/12 05:51:28;;;;;;;23.88;12.13;;;12.70;36.60;;;;;;6020997;22;45349;-50
2024/01/12 05:54:14;;;;;;;24.52;11.93;;;12.70;37.70;;;;;;6000623;22;45323;-50
2024/01/12 05:59:44;;;;;;;23.33;11.32;;;12.70;36.40;;;;;;6013159;22;45595;-50
2024/01/12 06:02:24;;;;;;;23.45;12.18;;;12.70;36.50;;;;;;6010727;22;45477;-50
2024/01/12 06:04:51;;;;;;;24.65;12.73;;;12.70;36.60;;;;;;6013276;22;45412;-50
2024/01/12 06:07:31;;;;;;;27.25;12.73;;;12.70;36.50;;;;;;6003849;22;45930;-50
2024/01/12 06:10:20;;;;;;;26.60;12.15;;;12.70;36.50;;;;;;6044489;22;46299;-50
2024/01/12 06:12:47;;;;;;;25.10;12.40;;;12.70;36.60;;;;;;6034895;22;45335;-50
2024/01/12 06:15:43;;;;;;;22.40;12.07;;;12.60;36.50;;;;;;6023995;22;45167;-50
2024/01/12 06:18:10;;;;;;;23.45;11.52;;;12.70;36.60;;;;;;6000281;22;47238;-50
2024/01/12 06:20:49;;;;;;;26.65;12.52;;;12.70;36.60;;;;;;6029848;22;45220;-50
2024/01/12 06:23:16;;;;;;;26.00;12.90;;;12.70;36.50;;;;;;6023583;22;45223;-50
2024/01/12 06:25:53;;;;;;;29.10;12.35;;;12.60;36.40;;;;;;6005929;22;45103;-50
2024/01/12 06:28:50;;;;;;;25.50;12.60;;;12.60;36.50;;;;;;6023950;22;46966;-50
2024/01/12 06:33:59;;;;;;;32.15;12.80;;;12.70;36.70;;;;;;5996891;22;45200;-50
2024/01/12 06:39:39;;;;;;;25.33;11.73;;;12.70;36.70;;;;;;6000330;22;45877;-50
2024/01/12 06:42:31;;;;;;;29.10;12.98;;;12.70;36.60;;;;;;6026320;22;45428;-50
2024/01/12 06:45:18;;;;;;;28.20;12.52;;;12.70;36.60;;;;;;6007315;22;45353;-50
2024/01/12 06:47:51;;;;;;;27.70;12.75;;;12.70;36.50;;;;;;6023588;22;45343;-51
2024/01/12 06:50:53;;;;;;;25.95;12.38;;;12.70;36.30;;;;;;6007302;22;47041;-50
2024/01/12 06:53:20;;;;;;;28.40;12.73;;;12.70;36.10;;;;;;6004779;22;45723;-50
2024/01/12 06:55:56;;;;;;;27.98;11.90;;;12.70;35.90;;;;;;6034714;22;45141;-50
2024/01/12 06:58:24;;;;;;;30.85;13.45;;;12.80;36.10;;;;;;6016820;22;45608;-50
2024/01/12 07:01:10;;;;;;;33.55;14.45;;;12.70;36.10;;;;;;6018788;22;46261;-50
2024/01/12 07:03:51;;;;;;;31.00;12.93;;;12.70;36.30;;;;;;6026146;22;45394;-50
2024/01/12 07:06:28;;;;;;;29.35;13.20;;;12.70;36.40;;;;;;6024734;22;45300;-50
2024/01/12 07:09:11;;;;;;;28.65;13.35;;;12.70;36.30;;;;;;6016876;22;45356;-50
2024/01/12 07:11:59;;;;;;;31.55;13.15;;;12.70;36.40;;;;;;6016964;22;45658;-50
2024/01/12 07:14:26;;;;;;;31.90;14.63;;;12.70;36.60;;;;;;6021511;22;45163;-50
2024/01/12 07:17:12;;;;;;;28.10;13.27;;;12.70;36.50;;;;;;6016517;22;45353;-50
2024/01/12 07:20:06;;;;;;;30.15;12.50;;;12.70;37.30;;;;;;6026189;22;45691;-50
2024/01/12 07:22:33;;;;;;;33.63;14.05;;;12.80;39.30;;;;;;6018707;22;46309;-51
2024/01/12 07:25:23;;;;;;;32.22;13.73;;;12.80;38.50;;;;;;6009912;22;45273;-50
2024/01/12 07:27:52;;;;;;;32.95;14.88;;;12.80;38.40;;;;;;6029365;22;45223;-50
2024/01/12 07:30:40;;;;;;;34.08;14.57;;;12.80;38.00;;;;;;5976975;22;45406;-50
2024/01/12 07:33:08;;;;;;;31.83;13.98;;;12.70;37.80;;;;;;5995678;22;46385;-50
2024/01/12 07:35:37;;;;;;;35.53;14.57;;;12.70;37.70;;;;;;5989561;22;45201;-50
2024/01/12 07:38:28;;;;;;;33.85;12.93;;;12.70;37.60;;;;;;6000908;22;45503;-50
2024/01/12 07:40:54;;;;;;;30.13;13.85;;;12.70;37.70;;;;;;6002917;22;45338;-50
2024/01/12 07:43:32;;;;;;;29.30;13.43;;;12.70;37.50;;;;;;5988313;22;46932;-50
2024/01/12 07:46:00;;;;;;;32.95;14.07;;;12.70;37.40;;;;;;5984867;22;45317;-50
2024/01/12 07:48:29;;;;;;;32.50;14.07;;;12.70;37.10;;;;;;5994076;22;45387;-50
2024/01/12 07:51:27;;;;;;;30.52;14.32;;;12.60;37.00;;;;;;6004890;22;45184;-50
2024/01/12 07:54:08;;;;;;;29.63;14.15;;;12.70;37.00;;;;;;5995642;22;46357;-50
2024/01/12 07:56:36;;;;;;;29.90;13.93;;;12.70;36.90;;;;;;5999704;22;45402;-50
2024/01/12 07:59:15;;;;;;;28.88;13.57;;;12.60;36.80;;;;;;5995230;22;45401;-50
2024/01/12 08:01:46;;;;;;;36.42;15.20;;;12.60;36.70;;;;;;5993718;22;45542;-50
2024/01/12 08:04:13;;;;;;;33.38;14.93;;;12.60;36.50;;;;;;5975470;22;47109;-50
2024/01/12 08:06:41;;;;;;;34.17;14.88;;;12.60;36.40;;;;;;5996226;22;45348;-50
2024/01/12 08:09:09;;;;;;;30.90;13.82;;;12.60;36.20;;;;;;5983203;22;45446;-50
2024/01/12 08:12:02;;;;;;;32.20;13.63;;;12.50;35.90;;;;;;6013380;22;45174;-50
2024/01/12 08:14:54;;;;;;;31.73;13.77;;;12.50;35.70;;;;;;6028367;22;46122;-50
2024/01/12 08:17:21;;;;;;;31.42;13.50;;;12.50;35.90;;;;;;5995391;22;45329;-50
2024/01/12 08:19:50;;;;;;;24.77;12.30;;;12.50;36.10;;;;;;6009629;22;45220;-50
2024/01/12 08:22:19;;;;;;;24.70;11.60;;;12.60;36.30;;;;;;6018608;22;45289;-50
2024/01/12 08:25:09;;;;;;;22.73;11.68;;;12.50;36.20;;;;;;6011963;22;47526;-50
2024/01/12 08:27:36;;;;;;;26.27;11.70;;;12.50;36.10;;;;;;6020304;22;45401;-50
2024/01/12 08:30:12;;;;;;;24.70;12.20;;;12.50;36.20;;;;;;6026176;22;45192;-50
2024/01/12 08:32:39;;;;;;;25.42;11.77;;;12.50;36.10;;;;;;6015415;22;45347;-50
2024/01/12 08:35:26;;;;;;;22.63;11.25;;;12.50;36.00;;;;;;6022737;22;45515;-50
2024/01/12 08:37:55;;;;;;;24.48;11.02;;;12.50;36.10;;;;;;6029688;22;45113;-50
2024/01/12 08:40:24;;;;;;;21.13;10.68;;;12.50;36.20;;;;;;6019557;22;45183;-50
2024/01/12 08:43:19;;;;;;;19.80;10.48;;;12.50;36.20;;;;;;6004128;22;45580;-50
2024/01/12 08:45:46;;;;;;;20.67;10.32;;;12.40;36.10;;;;;;6028882;22;45949;-50
2024/01/12 08:48:35;;;;;;;24.30;11.13;;;12.50;36.20;;;;;;6020728;22;45314;-51
2024/01/12 08:51:01;;;;;;;22.27;8.65;;;12.60;37.70;;;;;;6012858;22;45500;-51
2024/01/12 08:53:53;;;;;;;35.22;9.45;;;13.00;37.40;;;;;;6032025;22;45104;-52
2024/01/12 08:59:59;;;;;;;20.02;9.13;;;13.50;37.00;;;;;;6028403;22;45228;-51
2024/01/12 09:02:26;;;;;;;20.02;7.90;;;13.70;36.60;;;;;;6028860;22;45278;-52
2024/01/12 09:05:20;;;;;;;28.17;7.93;;;13.80;36.40;;;;;;6025720;22;45322;-51
2024/01/12 09:07:53;;;;;;;17.90;8.25;;;13.90;37.80;;;;;;6021153;22;45462;-51
2024/01/12 09:10:37;;;;;;;14.27;7.50;;;13.90;37.70;;;;;;6015189;22;45369;-51
2024/01/12 09:13:07;;;;;;;14.57;6.97;;;13.90;38.10;;;;;;6013803;22;45301;-51
2024/01/12 09:16:10;;;;;;;16.17;7.72;;;13.70;38.30;;;;;;6037199;22;45523;-51
2024/01/12 09:18:52;;;;;;;15.82;8.07;;;13.60;38.50;;;;;;6017500;22;46237;-51
2024/01/12 09:21:38;;;;;;;14.15;7.82;;;13.50;38.60;;;;;;6003551;22;45490;-51
2024/01/12 09:24:36;;;;;;;17.95;7.85;;;13.50;38.90;;;;;;6031338;22;45441;-51
2024/01/12 09:27:26;;;;;;;15.95;8.05;;;13.40;39.00;;;;;;6012713;22;45244;-51
2024/01/12 09:30:22;;;;;;;16.27;8.93;;;13.40;39.20;;;;;;6026638;22;46011;-51
2024/01/12 09:32:52;;;;;;;17.75;8.43;;;13.40;39.10;;;;;;6005047;22;45454;-51
2024/01/12 09:35:56;;;;;;;16.40;7.82;;;13.40;39.20;;;;;;6016794;22;45097;-51
2024/01/12 09:38:44;;;;;;;14.70;7.70;;;13.40;39.10;;;;;;6031451;22;45323;-51
2024/01/12 09:41:59;;;;;;;16.27;8.23;;;13.40;39.40;;;;;;6024044;22;45914;-51
2024/01/12 09:44:56;;;;;;;16.70;8.10;;;13.40;39.70;;;;;;6033570;22;45294;-51
2024/01/12 09:47:26;;;;;;;15.65;8.60;;;13.40;39.40;;;;;;5998850;22;45361;-52
2024/01/12 09:50:27;;;;;;;15.38;7.70;;;13.40;39.20;;;;;;6017670;22;45086;-51
2024/01/12 09:53:04;;;;;;;13.63;7.10;;;13.30;39.70;;;;;;6024746;22;45363;-51
2024/01/12 09:55:31;;;;;;;13.65;7.00;;;13.30;39.30;;;;;;6021874;22;45395;-52
2024/01/12 09:58:24;;;;;;;14.90;7.28;;;13.40;39.60;;;;;;6025561;22;45293;-51
2024/01/12 10:00:52;;;;;;;15.20;7.28;;;13.40;39.90;;;;;;6019658;22;45942;-52
2024/01/12 10:03:21;;;;;;;11.15;5.95;;;13.40;39.70;;;;;;6020043;22;46265;-52
2024/01/12 10:06:06;;;;;;;11.38;6.03;;;13.40;39.60;;;;;;6025604;22;45235;-51
2024/01/12 10:08:36;;;;;;;11.38;5.47;;;13.40;39.70;;;;;;6004005;22;45191;-51
2024/01/12 10:11:03;;;;;;;10.00;5.18;;;13.40;39.50;;;;;;6009002;22;45432;-52
2024/01/12 10:13:57;;;;;;;10.52;5.47;;;13.40;39.50;;;;;;5994045;22;46193;-51
2024/01/12 10:16:55;;;;;;;10.75;5.60;;;13.40;40.00;;;;;;6032426;22;45427;-51
2024/01/12 10:19:23;;;;;;;10.15;5.32;;;13.40;40.00;;;;;;6022923;22;45389;-51
2024/01/12 10:21:51;;;;;;;10.90;5.88;;;13.40;39.80;;;;;;6027083;22;45334;-52
2024/01/12 10:32:19;;;;;;;12.23;5.70;;;13.40;39.90;;;;;;6190079;22;45294;-52
2024/01/12 10:34:52;;;;;;;9.27;5.32;;;13.40;39.80;;;;;;6114898;22;45826;-51
2024/01/12 10:37:50;;;;;;;10.10;5.63;;;13.40;39.80;;;;;;6148357;22;44685;-51
2024/01/12 10:40:18;;;;;;;11.88;5.47;;;13.40;39.90;;;;;;6121157;22;44710;-51
2024/01/12 10:42:49;;;;;;;8.27;4.85;;;13.40;39.80;;;;;;6133831;22;44723;-51
2024/01/12 10:45:37;;;;;;;10.13;4.80;;;13.40;39.80;;;;;;6162082;22;45616;-52
2024/01/12 10:48:06;;;;;;;10.00;5.18;;;13.40;39.90;;;;;;6133930;22;44665;-51
2024/01/12 10:50:42;;;;;;;8.95;4.70;;;13.40;40.10;;;;;;6130375;22;44759;-52
2024/01/12 10:53:25;;;;;;;9.57;5.50;;;13.40;40.10;;;;;;6131799;22;44807;-52
2024/01/12 10:56:00;;;;;;;12.18;5.13;;;13.40;40.10;;;;;;6121522;22;45396;-52
2024/01/12 10:58:32;;;;;;;11.32;5.57;;;13.50;40.30;;;;;;6136003;22;44748;-51
2024/01/12 11:01:00;;;;;;;11.23;4.88;;;13.40;40.00;;;;;;6143946;22;44595;-52
2024/01/12 11:03:43;;;;;;;9.55;5.45;;;13.40;40.10;;;;;;6151367;22;44809;-51
2024/01/12 11:06:24;;;;;;;10.77;4.80;;;13.40;40.10;;;;;;6141435;22;45691;-51
2024/01/12 11:09:09;;;;;;;11.77;5.45;;;13.40;40.10;;;;;;6145870;22;45044;-51
2024/01/12 11:11:44;;;;;;;12.25;5.30;;;13.40;40.20;;;;;;6131086;22;44814;-52
2024/01/12 11:14:12;;;;;;;10.45;5.30;;;13.40;39.90;;;;;;6131680;22;44880;-51
2024/01/12 11:16:40;;;;;;;9.15;4.80;;;13.40;39.60;;;;;;6133512;22;45353;-51
2024/01/12 11:19:15;;;;;;;9.45;4.97;;;13.50;39.40;;;;;;6122067;22;45256;-51
2024/01/12 11:21:44;;;;;;;9.05;4.68;;;13.50;39.30;;;;;;6114756;22;45017;-52
2024/01/12 11:24:13;;;;;;;10.43;4.97;;;13.60;39.40;;;;;;6130472;22;44652;-52
2024/01/12 11:30:03;;;;;;;12.68;5.55;;;13.60;39.50;;;;;;6047985;22;44833;-49
2024/01/12 11:32:32;;;;;;;11.48;5.53;;;13.60;39.80;;;;;;6094066;22;44782;-49
2024/01/12 11:35:20;;;;;;;11.98;5.35;;;13.50;39.70;;;;;;6085323;22;44675;-49
2024/01/12 11:38:04;;;;;;;11.05;5.43;;;13.50;39.90;;;;;;6079577;22;45999;-49
2024/01/12 11:40:42;;;;;;;9.25;5.45;;;13.40;39.80;;;;;;6101745;22;45001;-49
2024/01/12 11:43:17;;;;;;;10.98;5.38;;;13.20;39.40;;;;;;6088972;22;44857;-49
2024/01/12 11:45:45;;;;;;;11.57;5.28;;;13.20;39.40;;;;;;6092008;22;45042;-50
2024/01/12 11:48:23;;;;;;;11.80;5.72;;;13.10;39.20;;;;;;6095261;22;46343;-50
2024/01/12 11:50:51;;;;;;;14.00;5.80;;;13.10;39.10;;;;;;6079095;22;45074;-49
2024/01/12 11:53:28;;;;;;;11.05;5.63;;;13.10;39.10;;;;;;6095760;22;44764;-49
2024/01/12 11:56:08;;;;;;;11.95;5.93;;;13.10;39.10;;;;;;6094884;22;44708;-49
2024/01/12 11:58:40;;;;;;;11.65;5.57;;;13.20;39.00;;;;;;6076180;22;45375;-49
2024/01/12 12:01:29;;;;;;;11.52;6.10;;;13.20;38.90;;;;;;6099682;22;44712;-49
2024/01/12 12:04:22;;;;;;;13.63;6.05;;;13.20;38.80;;;;;;6095532;22;44917;-49
2024/01/12 12:06:49;;;;;;;11.43;6.20;;;13.20;38.70;;;;;;6085068;22;44782;-49
2024/01/12 12:09:33;;;;;;;12.27;5.95;;;13.20;38.80;;;;;;6098316;22;44928;-49
2024/01/12 12:12:01;;;;;;;14.20;6.30;;;13.20;38.70;;;;;;6100175;22;44832;-49
2024/01/12 12:14:54;;;;;;;15.05;6.28;;;13.20;38.70;;;;;;6082380;22;44848;-50
2024/01/12 12:17:36;;;;;;;12.40;5.97;;;13.20;38.70;;;;;;6075436;22;44865;-49
2024/01/12 12:20:10;;;;;;;11.93;5.95;;;13.20;38.50;;;;;;6095096;22;45996;-49
2024/01/12 12:22:37;;;;;;;11.15;6.25;;;13.20;38.40;;;;;;6078184;22;44800;-49
2024/01/12 12:25:08;;;;;;;11.13;5.82;;;13.20;38.40;;;;;;6094803;22;44846;-49
2024/01/12 12:27:54;;;;;;;12.80;6.38;;;13.20;38.40;;;;;;6110838;22;44700;-49
2024/01/12 12:30:27;;;;;;;13.32;5.93;;;13.20;38.30;;;;;;6081173;22;45294;-49
2024/01/12 12:33:08;;;;;;;15.18;6.45;;;13.20;38.20;;;;;;6100289;22;45056;-49
2024/01/12 12:35:35;;;;;;;11.93;6.53;;;13.10;38.50;;;;;;6096842;22;44856;-49
2024/01/12 12:38:02;;;;;;;14.52;6.38;;;13.20;38.50;;;;;;6088174;22;44943;-49
2024/01/12 12:40:32;;;;;;;14.73;6.15;;;13.10;38.30;;;;;;6104957;22;46516;-49
2024/01/12 12:43:01;;;;;;;11.63;5.88;;;13.20;38.40;;;;;;6098949;22;44729;-49
2024/01/12 12:45:31;;;;;;;11.57;5.88;;;13.10;38.30;;;;;;6095581;22;44826;-49
2024/01/12 12:48:09;;;;;;;12.65;6.05;;;13.20;38.20;;;;;;6088830;22;44788;-49
2024/01/12 12:50:36;;;;;;;11.75;5.97;;;13.10;38.20;;;;;;6096150;22;45991;-49
2024/01/12 12:53:03;;;;;;;11.18;5.53;;;13.10;38.30;;;;;;6099263;22;44718;-49
2024/01/12 12:55:33;;;;;;;12.05;5.68;;;13.10;38.30;;;;;;6096383;22;44737;-49
2024/01/12 12:58:01;;;;;;;10.27;6.03;;;13.10;38.30;;;;;;6091966;22;44750;-49
2024/01/12 13:00:27;;;;;;;11.25;5.55;;;13.10;38.50;;;;;;6090511;22;45394;-49
2024/01/12 13:02:56;;;;;;;11.30;6.00;;;13.00;38.50;;;;;;6101767;22;44725;-49
2024/01/12 13:05:22;;;;;;;10.52;5.65;;;13.00;38.60;;;;;;6091725;22;44666;-49
2024/01/12 13:07:50;;;;;;;9.40;5.25;;;13.10;39.20;;;;;;6068387;22;44970;-49
2024/01/12 13:10:16;;;;;;;11.48;5.97;;;13.20;40.20;;;;;;6085960;22;46189;-49
2024/01/12 13:12:45;;;;;;;10.02;5.25;;;13.20;39.80;;;;;;6099683;22;44686;-49
2024/01/12 13:15:30;;;;;;;12.43;5.78;;;13.30;39.70;;;;;;6097676;22;44757;-49
2024/01/12 13:17:57;;;;;;;11.45;5.32;;;13.30;39.90;;;;;;6108203;22;44969;-49
2024/01/12 13:20:32;;;;;;;10.32;5.35;;;13.40;39.80;;;;;;6081827;22;46391;-49
2024/01/12 13:23:17;;;;;;;14.05;5.95;;;13.40;39.80;;;;;;6096497;22;44843;-49
2024/01/12 13:25:45;;;;;;;13.88;6.20;;;13.50;40.00;;;;;;6083865;22;44839;-49
2024/01/12 13:28:33;;;;;;;14.65;5.63;;;13.60;39.70;;;;;;6076604;22;44993;-49
2024/01/12 13:31:02;;;;;;;11.82;5.90;;;13.60;39.70;;;;;;6100509;22;46263;-49
2024/01/12 13:33:40;;;;;;;9.95;5.15;;;13.70;39.80;;;;;;6092507;22;44910;-49
2024/01/12 13:36:17;;;;;;;14.70;6.05;;;13.70;39.70;;;;;;6118088;22;44738;-49
2024/01/12 13:38:49;;;;;;;16.85;5.38;;;13.70;39.60;;;;;;6115926;22;44698;-49
2024/01/12 13:41:28;;;;;;;13.80;5.80;;;13.70;39.60;;;;;;6095148;22;45008;-49
2024/01/12 13:44:09;;;;;;;14.35;6.00;;;13.70;39.50;;;;;;6091649;22;44766;-49
2024/01/12 13:46:38;;;;;;;11.98;5.80;;;13.70;39.80;;;;;;6097258;22;44880;-49
2024/01/12 13:49:10;;;;;;;17.52;5.22;;;13.60;39.60;;;;;;6082177;22;44976;-48
2024/01/12 13:51:52;;;;;;;42.13;7.30;;;13.50;40.60;;;;;;6101962;22;46187;-49
2024/01/12 13:54:20;;;;;;;13.60;5.43;;;13.60;41.70;;;;;;6078509;22;44765;-49
2024/01/12 13:56:46;;;;;;;14.98;6.15;;;13.50;40.50;;;;;;6104685;22;44840;-49
2024/01/12 13:59:25;;;;;;;13.00;5.40;;;13.50;40.30;;;;;;6087887;22;45014;-49
2024/01/12 14:01:53;;;;;;;12.35;5.72;;;13.40;40.10;;;;;;6102911;22;45955;-49
2024/01/12 14:04:29;;;;;;;12.25;6.05;;;13.40;40.10;;;;;;6095076;22;44714;-49
2024/01/12 14:06:59;;;;;;;13.63;6.20;;;13.40;40.20;;;;;;6080167;22;44955;-49
2024/01/12 14:09:39;;;;;;;14.75;5.47;;;13.40;40.30;;;;;;6076073;22;44946;-49
2024/01/12 14:12:06;;;;;;;9.80;5.97;;;13.40;40.40;;;;;;6071510;22;45948;-49
2024/01/12 14:14:35;;;;;;;12.48;5.68;;;13.40;40.30;;;;;;6079856;22;44889;-49
2024/01/12 14:17:02;;;;;;;13.15;5.95;;;13.40;40.40;;;;;;6086312;22;45022;-49
2024/01/12 14:19:29;;;;;;;14.80;5.75;;;13.40;40.50;;;;;;6098496;22;44942;-49